• Join FlightAware (Why Join?)
  • Login
  • US Flag 
11:59AM EDT


 

Airport Tracker/Info


-or-


 

Live Flight TrackerFlight Track Log ✈ AWE3417 ✈ 23-Apr-2013 ✈ KMHT - KDCA

Flight Track Log - Related Links

Times and Time Zones

All times are in EDT time to prevent confusion due to time zone crossing. See the AWE3417 flight status page for this flight to view local times or setup timezone preferences in your user account.

Time Position Orientation Groundspeed Altitude Reporting Facility
EDT Latitude Longitude Course Direction KTS MPH feet Rate Location/Type
06:19PM 42.9500 -71.4333 202° Southwest 141 162 1,300  Level KA90
06:21PM 42.9936 -71.3756 44° Northeast 179 206 4,300 2,160 Climbing Boston Center
06:22PM 43.0745 -70.9701 132° Southeast  Level FlightAware Approximate
06:22PM 43.0156 -71.2872 71° East 220 253 6,700  Level Boston Center
06:23PM 43.0010 -70.8843 144° Southeast  Level FlightAware Approximate
06:23PM 43.0436 -71.1817 70° East 255 293 9,200  Level Boston Center
06:24PM 42.9137 -70.9054 202° Southwest  Level FlightAware Approximate
06:24PM 43.0675 -71.0872 71° East 279 321 11,300  Level Boston Center
06:25PM 43.0661 -70.9650 91° East 293 337 13,100 1,500 Climbing Boston Center
06:26PM 43.0028 -70.9014 144° Southeast 276 318 14,400 1,320 Climbing Boston Center
06:27PM 42.9092 -70.9208 189° South 268 308 15,800 1,200 Climbing Boston Center
06:28PM 42.8325 -70.9567 199° South 315 362 16,800 960 Climbing Boston Center
06:29PM 42.7372 -71.0042 200° South 329 379 17,800 1,020 Climbing Boston Center
06:30PM 42.6606 -71.0397 199° South 324 373 18,900 1,020 Climbing Boston Center
06:31PM 42.5778 -71.0839 201° Southwest 324 373 19,900 1,080 Climbing Boston Center
06:32PM 42.4886 -71.1253 199° South 329 379 21,100 1,200 Climbing Boston Center
06:33PM 42.4122 -71.1917 213° Southwest 334 384 22,300 1,140 Climbing Boston Center
06:34PM 42.3739 -71.3131 247° West 322 371 23,400 1,140 Climbing Boston Center
06:35PM 42.3375 -71.4347 248° West 340 391 24,600 960 Climbing Boston Center
06:36PM 42.2928 -71.5672 246° West 350 403 25,600 1,200 Climbing Boston Center
06:37PM 42.2522 -71.7053 248° West 356 410 27,300 1,380 Climbing Boston Center
06:38PM 42.2133 -71.8261 247° West 356 410 28,500 1,200 Climbing Boston Center
06:39PM 42.1742 -71.9442 246° West 356 410 29,700 1,140 Climbing Boston Center
06:40PM 42.1392 -72.0622 248° West 351 404 30,800 1,140 Climbing Boston Center
06:41PM 42.1042 -72.1769 248° West 351 404 32,000 600 Climbing Boston Center
06:42PM 42.0669 -72.2892 246° West 340 391 32,000  Level Boston Center
06:43PM 42.0314 -72.4039 247° West 335 386 32,000  Level Boston Center
06:44PM 41.9939 -72.5156 246° West 335 386 32,000  Level Boston Center
06:45PM 41.9542 -72.6439 247° West 335 386 32,000  Level Boston Center
06:46PM 41.9122 -72.7303 237° Southwest 335 386 32,000  Level Boston Center
06:47PM 41.8517 -72.8108 225° Southwest 325 374 32,000  Level Boston Center
06:48PM 41.7847 -72.9050 226° Southwest 324 373 32,000  Level Boston Center
06:49PM 41.7217 -72.9881 225° Southwest 324 373 32,000  Level Boston Center
06:50PM 41.6608 -73.0736 226° Southwest 324 373 32,000  Level Boston Center
06:51PM 41.6019 -73.1564 226° Southwest 324 373 32,000  Level Boston Center
06:53PM 41.4992 -73.2892 224° Southwest 301 346 32,000  Level New York Center
06:54PM 41.4369 -73.3753 226° Southwest 308 354 32,000  Level New York Center
06:55PM 41.3767 -73.4586 226° Southwest 320 368 32,000  Level New York Center
06:56PM 41.3122 -73.5444 225° Southwest 320 368 32,000  Level New York Center
06:57PM 41.2517 -73.6383 229° Southwest 325 374 32,000  Level New York Center
06:58PM 41.1931 -73.7353 231° Southwest 336 387 32,000  Level New York Center
06:59PM 41.1367 -73.8292 231° Southwest 342 394 32,000  Level New York Center
07:00PM 41.0800 -73.9256 232° Southwest 342 394 32,000 -420 Level New York Center
07:01PM 41.0189 -74.0217 230° Southwest 342 394 31,200 -1,620 Descending New York Center
07:02PM 40.9619 -74.1233 233° Southwest 342 394 28,800 -1,620 Descending New York Center
07:03PM 40.8944 -74.2272 229° Southwest 356 410 28,000 -420 Descending New York Center
07:04PM 40.8286 -74.3336 231° Southwest 370 426 28,000  Level New York Center
07:05PM 40.7650 -74.4425 232° Southwest 376 433 28,000  Level New York Center
07:06PM 40.6989 -74.5511 231° Southwest 382 440 28,000  Level New York Center
07:07PM 40.6350 -74.6597 232° Southwest 382 440 28,000 -1,380 Level New York Center
07:08PM 40.5669 -74.7653 230° Southwest 382 440 25,300 -2,640 Descending New York Center
07:09PM 40.4944 -74.8700 228° Southwest 388 447 22,800 -1,680 Descending New York Center
07:10PM 40.4244 -74.9667 226° Southwest 388 447 22,000 -420 Descending New York Center
07:11PM 40.3542 -75.0661 227° Southwest 377 434 22,000  Level New York Center
07:12PM 40.2839 -75.1650 227° Southwest 377 434 22,000  Level New York Center
07:13PM 40.2156 -75.2639 228° Southwest 377 434 22,000  Level New York Center
07:14PM 40.1450 -75.3625 227° Southwest 372 428 22,000  Level New York Center
07:15PM 40.0678 -75.4689 227° Southwest 372 428 22,000  Level New York Center
07:16PM 40.0014 -75.5672 229° Southwest 372 428 22,000 -900 Level New York Center
07:17PM 39.9392 -75.6633 230° Southwest 366 421 20,200 -1,860 Descending New York Center
07:18PM 39.8725 -75.7614 228° Southwest 366 421 18,400 -1,380 Descending New York Center
07:19PM 39.8208 -75.8469 232° Southwest 354 407 17,600 -1,440 Descending New York Center
07:20PM 39.7603 -75.9425 231° Southwest 331 381 15,600 -2,040 Descending New York Center
07:21PM 39.7025 -76.0272 228° Southwest 326 375 13,600 -1,380 Descending New York Center
07:22PM 39.6550 -76.1047 231° Southwest 321 369 12,800 -720 Descending New York Center
07:23PM 39.5667 -76.2333 228° Southwest 304 350 12,000 -360 Descending Potomac TRACON
07:24PM 39.5167 -76.3167 232° Southwest 306 352 12,000  Level Potomac TRACON
07:25PM 39.4667 -76.4000 232° Southwest 305 351 12,000  Level Potomac TRACON
07:26PM 39.4000 -76.4667 218° Southwest 314 361 12,000 -600 Level Potomac TRACON
07:27PM 39.3333 -76.5333 218° Southwest 313 360 10,900 -1,020 Descending Potomac TRACON
07:28PM 39.2500 -76.5833 205° Southwest 299 344 10,000 -480 Descending Potomac TRACON
07:29PM 39.1833 -76.6500 218° Southwest 295 339 10,000  Level Potomac TRACON
07:30PM 39.1333 -76.7167 226° Southwest 293 337 10,000  Level Potomac TRACON
07:31PM 39.0667 -76.7833 218° Southwest 287 330 10,000 -900 Level Potomac TRACON
07:32PM 39.0000 -76.8500 218° Southwest 282 325 8,300 -1,560 Descending Potomac TRACON
07:33PM 38.9500 -76.9167 226° Southwest 264 304 6,900 -1,260 Descending Potomac TRACON
07:34PM 38.8833 -76.9500 201° Southwest 273 314 5,800 -1,380 Descending Potomac TRACON
07:35PM 38.8167 -76.9500 180° South 268 308 4,200 -1,560 Descending Potomac TRACON
07:36PM 38.7333 -76.9333 171° South 250 288 2,700 -1,140 Descending Potomac TRACON
07:37PM 38.7000 -76.9833 230° Southwest 212 244 2,000 -360 Descending Potomac TRACON
07:38PM 38.7333 -77.0167 322° Northwest 180 207 2,000 -360 Level Potomac TRACON
07:39PM 38.7833 -77.0333 345° North 149 171 1,300 -720 Descending Potomac TRACON